Time;durP1;ratioP1;P1;durP2;ratioP2;P2;SDS_P1;SDS_P2;PMS_P1;PMS_P2;Temp;Humidity;BMP_temperature;BMP_pressure;BME280_temperature;BME280_humidity;BME280_pressure;Samples;Min_cycle;Max_cycle;Signal;HPM_P1;HPM_P2
2022/04/09 00:00:11;;;;;;;13.88;5.78;;;;;;;1.39;100.00;98314.69;12210237;19;20020;-77
2022/04/09 00:04:13;;;;;;;14.63;5.93;;;;;;;1.45;100.00;98326.53;12189684;19;20015;-77
2022/04/09 00:08:15;;;;;;;15.77;6.20;;;;;;;1.48;100.00;98339.66;12209929;19;20023;-78
2022/04/09 00:12:18;;;;;;;14.75;6.57;;;;;;;1.49;100.00;98350.31;12204939;19;20009;-78
2022/04/09 00:16:20;;;;;;;16.75;7.82;;;;;;;1.54;100.00;98360.47;12185454;19;20495;-78
2022/04/09 00:20:22;;;;;;;18.35;7.15;;;;;;;1.57;100.00;98368.16;12203503;19;20007;-78
2022/04/09 00:24:24;;;;;;;20.45;8.15;;;;;;;1.59;100.00;98382.34;12200534;19;20014;-77
2022/04/09 00:28:26;;;;;;;19.25;7.85;;;;;;;1.56;100.00;98399.09;12187819;19;20020;-79
2022/04/09 00:32:28;;;;;;;17.88;7.93;;;;;;;1.53;100.00;98391.38;12194685;19;20022;-80
2022/04/09 00:36:29;;;;;;;23.40;9.52;;;;;;;1.57;100.00;98398.84;12184006;19;20410;-80
2022/04/09 00:40:31;;;;;;;22.60;9.23;;;;;;;1.54;100.00;98404.72;12199959;19;20022;-81
2022/04/09 00:44:33;;;;;;;19.88;9.02;;;;;;;1.57;100.00;98417.03;12188681;19;20010;-80
2022/04/09 00:48:36;;;;;;;18.30;8.48;;;;;;;1.57;100.00;98431.41;12183327;19;20386;-81
2022/04/09 00:52:45;;;;;;;24.73;10.27;;;;;;;1.54;100.00;98455.47;12210876;19;20471;-82
2022/04/09 00:56:49;;;;;;;20.00;8.85;;;;;;;1.48;100.00;98475.38;12205900;19;20342;-82
2022/04/09 01:00:50;;;;;;;24.40;9.27;;;;;;;1.49;100.00;98482.50;12187918;19;20045;-82
2022/04/09 01:04:53;;;;;;;18.98;8.63;;;;;;;1.44;100.00;98499.44;12201660;19;20015;-80
2022/04/09 01:08:54;;;;;;;20.67;8.88;;;;;;;1.42;100.00;98517.00;12217149;19;20362;-81
2022/04/09 01:12:59;;;;;;;20.77;8.20;;;;;;;1.41;100.00;98531.63;12185653;19;20014;-81
2022/04/09 01:17:02;;;;;;;19.48;8.05;;;;;;;1.41;100.00;98546.03;12207355;19;20006;-80
2022/04/09 01:21:04;;;;;;;19.88;7.72;;;;;;;1.36;100.00;98556.72;12198189;19;20010;-81
2022/04/09 01:25:06;;;;;;;22.08;9.68;;;;;;;1.28;100.00;98562.41;12170296;19;20015;-80
2022/04/09 01:29:09;;;;;;;19.17;8.07;;;;;;;1.22;100.00;98576.84;12196516;19;20375;-79
2022/04/09 01:33:18;;;;;;;17.77;7.85;;;;;;;1.10;100.00;98584.88;12208186;19;20021;-79
2022/04/09 01:37:24;;;;;;;16.67;7.75;;;;;;;1.01;100.00;98592.47;12176962;19;20020;-79
2022/04/09 01:41:26;;;;;;;14.93;7.10;;;;;;;0.93;100.00;98610.88;12205782;19;20499;-79
2022/04/09 01:45:37;;;;;;;17.25;7.95;;;;;;;0.86;100.00;98617.16;12176738;19;20026;-80
2022/04/09 01:49:45;;;;;;;18.83;7.25;;;;;;;0.84;100.00;98640.13;12198332;19;20011;-80
2022/04/09 01:53:47;;;;;;;17.73;7.78;;;;;;;0.79;100.00;98651.59;12196857;19;20018;-78
2022/04/09 01:57:51;;;;;;;17.60;7.63;;;;;;;0.77;100.00;98667.25;12174579;19;20035;-80
2022/04/09 02:01:56;;;;;;;17.48;7.75;;;;;;;0.81;100.00;98673.91;12197758;19;20007;-79
2022/04/09 02:05:58;;;;;;;21.45;7.78;;;;;;;0.84;100.00;98689.75;12194609;19;20018;-79
2022/04/09 02:10:00;;;;;;;20.20;8.48;;;;;;;0.97;100.00;98709.75;12180583;19;20011;-80
2022/04/09 02:14:10;;;;;;;21.08;8.73;;;;;;;1.09;100.00;98718.88;12195269;19;20418;-80
2022/04/09 02:18:12;;;;;;;23.38;7.93;;;;;;;1.05;100.00;98728.50;12193957;19;20493;-79
2022/04/09 02:22:17;;;;;;;20.95;8.05;;;;;;;1.01;100.00;98736.22;12180324;19;20078;-78
2022/04/09 02:26:22;;;;;;;22.67;8.20;;;;;;;1.01;100.00;98744.38;12205163;19;20006;-78
2022/04/09 02:30:24;;;;;;;22.10;8.32;;;;;;;1.12;100.00;98751.00;12205895;19;20365;-78
2022/04/09 02:34:32;;;;;;;26.58;9.10;;;;;;;1.19;100.00;98768.09;12176194;19;20039;-77
2022/04/09 02:38:34;;;;;;;23.40;8.95;;;;;;;1.30;100.00;98774.72;12194284;19;20010;-78
2022/04/09 02:42:38;;;;;;;27.92;10.68;;;;;;;1.39;100.00;98780.72;12173058;19;20498;-78
2022/04/09 02:46:40;;;;;;;24.15;10.23;;;;;;;1.52;100.00;98783.41;12193104;19;20007;-78
2022/04/09 02:50:42;;;;;;;28.63;12.32;;;;;;;1.63;100.00;98801.69;12194056;19;20666;-77
2022/04/09 02:54:44;;;;;;;23.60;9.75;;;;;;;1.65;100.00;98810.47;12171667;19;20262;-77
2022/04/09 02:58:50;;;;;;;27.30;11.43;;;;;;;1.71;100.00;98820.47;12198839;19;20393;-78
2022/04/09 03:02:52;;;;;;;26.73;9.82;;;;;;;1.78;100.00;98821.25;12191625;19;20007;-78
2022/04/09 03:07:06;;;;;;;24.77;11.77;;;;;;;1.78;100.00;98821.25;12177169;19;20010;-80
2022/04/09 03:11:08;;;;;;;21.67;9.95;;;;;;;1.71;100.00;98836.75;12201692;19;20011;-81
2022/04/09 03:15:11;;;;;;;24.33;10.83;;;;;;;1.62;100.00;98850.81;12205046;19;20483;-80
2022/04/09 03:19:13;;;;;;;24.27;10.68;;;;;;;1.56;100.00;98849.78;12184474;19;20011;-80
2022/04/09 03:23:21;;;;;;;26.60;11.18;;;;;;;1.53;100.00;98861.91;12216520;19;20034;-81
2022/04/09 03:27:30;;;;;;;25.75;11.45;;;;;;;1.44;100.00;98867.78;12183282;19;20014;-81
2022/04/09 03:31:35;;;;;;;25.92;10.75;;;;;;;1.31;100.00;98864.09;12207867;19;20010;-79
2022/04/09 03:35:40;;;;;;;28.15;12.10;;;;;;;1.27;100.00;98875.56;12206901;19;20015;-82
2022/04/09 03:39:46;;;;;;;29.20;12.20;;;;;;;1.32;100.00;98886.63;12190625;19;20453;-81
2022/04/09 03:43:49;;;;;;;29.33;12.53;;;;;;;1.43;100.00;98898.69;12205698;19;20011;-81
2022/04/09 03:47:55;;;;;;;30.83;12.63;;;;;;;1.54;100.00;98917.03;12209327;19;20335;-81
2022/04/09 03:51:58;;;;;;;31.40;13.10;;;;;;;1.63;100.00;98915.75;12185924;19;20017;-82
2022/04/09 03:56:06;;;;;;;26.95;13.43;;;;;;;1.72;100.00;98928.03;12202252;19;20015;-81
2022/04/09 04:00:14;;;;;;;25.35;11.65;;;;;;;1.79;100.00;98936.19;12209398;19;20086;-82
2022/04/09 04:04:24;;;;;;;27.77;12.88;;;;;;;1.79;100.00;98945.16;12192681;19;20014;-84
2022/04/09 04:08:29;;;;;;;23.55;11.45;;;;;;;1.74;100.00;98949.56;12216420;19;20018;-85
2022/04/09 04:12:32;;;;;;;24.67;11.50;;;;;;;1.73;100.00;98953.34;12187647;19;20901;-84
2022/04/09 04:16:34;;;;;;;27.80;11.80;;;;;;;1.70;100.00;98960.03;12216371;19;20519;-84
2022/04/09 04:20:37;;;;;;;26.13;12.48;;;;;;;1.62;100.00;98962.16;12211293;19;20035;-85
2022/04/09 04:24:40;;;;;;;;;;;;;;;1.44;100.00;98976.38;12191553;19;20669;-84
2022/04/09 04:28:48;;;;;;;29.15;12.07;;;;;;;1.38;100.00;98988.91;12217192;19;19927;-84
2022/04/09 04:32:52;;;;;;;27.00;11.50;;;;;;;1.44;100.00;99003.53;12218591;19;20003;-84
2022/04/09 04:37:03;;;;;;;30.67;10.80;;;;;;;1.52;100.00;99009.59;12191653;19;20011;-85
2022/04/09 04:41:05;;;;;;;25.02;11.20;;;;;;;1.64;100.00;99017.91;12208243;19;20053;-84
2022/04/09 04:45:10;;;;;;;23.27;10.93;;;;;;;1.73;100.00;99029.41;12216272;19;22270;-86
2022/04/09 04:49:12;;;;;;;24.23;10.80;;;;;;;1.75;100.00;99038.16;12204806;19;20050;-86
2022/04/09 04:53:15;;;;;;;23.03;9.40;;;;;;;1.80;100.00;99051.94;12225216;19;20015;-84
2022/04/09 04:57:38;;;;;;;26.25;10.98;;;;;;;1.88;100.00;99065.31;12200166;19;20006;-84
2022/04/09 05:01:40;;;;;;;20.60;8.88;;;;;;;1.90;100.00;99070.50;12231370;19;20023;-82
2022/04/09 05:05:43;;;;;;;19.63;8.57;;;;;;;1.96;100.00;99075.97;12225873;19;21204;-84
2022/04/09 05:09:46;;;;;;;;;;;;;;;2.01;100.00;99080.75;12209874;19;20015;-82
2022/04/09 05:13:48;;;;;;;16.17;7.47;;;;;;;2.06;100.00;99083.66;12216513;19;19932;-85
2022/04/09 05:17:51;;;;;;;16.73;7.25;;;;;;;2.10;100.00;99093.06;12215951;19;20017;-81
2022/04/09 05:21:55;;;;;;;18.00;7.18;;;;;;;2.20;100.00;99100.75;12196846;19;20028;-83
2022/04/09 05:25:59;;;;;;;17.00;7.47;;;;;;;2.22;100.00;99110.38;12204430;19;20031;-81
2022/04/09 05:30:00;;;;;;;16.60;7.30;;;;;;;2.28;100.00;99120.38;12213628;19;20490;-81
2022/04/09 05:34:08;;;;;;;16.73;8.07;;;;;;;2.27;100.00;99135.03;12183166;19;20006;-81
2022/04/09 05:38:11;;;;;;;14.60;8.60;;;;;;;2.37;100.00;99144.63;12195898;19;20052;-81
2022/04/09 05:42:12;;;;;;;15.52;7.75;;;;;;;2.42;100.00;99158.44;12204434;19;20255;-81
2022/04/09 05:46:15;;;;;;;14.15;6.50;;;;;;;2.44;100.00;99161.75;12173319;19;20007;-83
2022/04/09 05:50:22;;;;;;;14.27;6.63;;;;;;;2.42;100.00;99169.31;12206043;19;20010;-83
2022/04/09 05:54:27;;;;;;;16.73;6.75;;;;;;;2.36;100.00;99171.00;12187289;19;20010;-79
2022/04/09 05:58:31;;;;;;;;;;;;;;;2.25;100.00;99182.50;12196098;19;20504;-81
2022/04/09 06:02:37;;;;;;;14.65;5.90;;;;;;;2.28;100.00;99190.25;12198142;19;19915;-81
2022/04/09 06:06:40;;;;;;;14.02;6.93;;;;;;;2.18;100.00;99192.56;12175479;19;20003;-83
2022/04/09 06:10:45;;;;;;;15.07;7.28;;;;;;;2.05;100.00;99196.13;12196166;19;20010;-82
2022/04/09 06:14:47;;;;;;;12.98;7.18;;;;;;;2.07;100.00;99204.91;12193091;19;20010;-82
2022/04/09 06:18:49;;;;;;;14.93;7.30;;;;;;;2.12;100.00;99217.88;12179854;19;20045;-83
2022/04/09 06:22:50;;;;;;;15.50;6.90;;;;;;;2.20;100.00;99218.50;12201385;19;20335;-82
2022/04/09 06:26:55;;;;;;;12.65;7.15;;;;;;;2.30;100.00;99231.66;12203964;19;20498;-80
2022/04/09 06:31:00;;;;;;;16.77;7.80;;;;;;;2.26;100.00;99236.69;12180420;19;20006;-81
2022/04/09 06:35:07;;;;;;;21.63;8.40;;;;;;;2.29;100.00;99246.31;12191303;19;20007;-80
2022/04/09 06:39:10;;;;;;;17.45;7.43;;;;;;;2.47;100.00;99256.53;12174537;19;20015;-83
2022/04/09 06:43:12;;;;;;;16.97;7.70;;;;;;;2.77;100.00;99265.06;12182357;19;20038;-82
2022/04/09 06:47:30;;;;;;;16.00;8.32;;;;;;;2.95;100.00;99264.41;12199893;19;20082;-84
2022/04/09 06:51:36;;;;;;;18.63;8.65;;;;;;;3.12;100.00;99270.19;12187921;19;20105;-81
2022/04/09 06:55:52;;;;;;;17.13;7.43;;;;;;;3.25;100.00;99283.78;12201738;19;20010;-82
2022/04/09 06:59:59;;;;;;;19.15;7.95;;;;;;;3.39;100.00;99287.25;12204238;19;20003;-80
2022/04/09 07:04:05;;;;;;;17.00;7.90;;;;;;;3.55;100.00;99300.41;12179065;19;20369;-81
2022/04/09 07:08:08;;;;;;;19.67;7.20;;;;;;;3.48;100.00;99288.72;12199422;19;20011;-82
2022/04/09 07:12:10;;;;;;;13.02;7.15;;;;;;;3.36;100.00;99293.13;12193381;19;20011;-82
2022/04/09 07:16:11;;;;;;;12.55;7.50;;;;;;;3.52;100.00;99306.28;12180822;19;20519;-83
2022/04/09 07:20:13;;;;;;;17.25;8.30;;;;;;;3.82;100.00;99308.44;12194990;19;20017;-82
2022/04/09 07:24:15;;;;;;;15.57;7.35;;;;;;;3.96;100.00;99312.75;12198063;19;20027;-83
2022/04/09 07:28:16;;;;;;;19.08;8.07;;;;;;;3.95;100.00;99316.53;12183590;19;20011;-83
2022/04/09 07:32:22;;;;;;;14.30;7.05;;;;;;;4.01;100.00;99325.72;12201939;19;20114;-82
2022/04/09 07:36:23;;;;;;;13.00;7.78;;;;;;;4.21;100.00;99320.97;12213388;19;20011;-82
2022/04/09 07:40:27;;;;;;;14.65;6.93;;;;;;;4.59;100.00;99332.88;12177730;19;20028;-82
2022/04/09 07:44:29;;;;;;;16.50;7.80;;;;;;;4.94;100.00;99336.75;12199565;19;20019;-82
2022/04/09 07:48:34;;;;;;;18.02;7.35;;;;;;;5.27;100.00;99337.47;12187242;19;20023;-82
2022/04/09 07:52:36;;;;;;;20.85;7.32;;;;;;;5.33;100.00;99334.66;12215077;19;20767;-79
2022/04/09 07:56:37;;;;;;;13.38;6.72;;;;;;;5.68;100.00;99331.28;12209143;19;20002;-80
2022/04/09 08:00:39;;;;;;;15.90;7.15;;;;;;;5.78;97.74;99333.50;12185030;19;20024;-82
2022/04/09 08:04:43;;;;;;;12.82;6.15;;;;;;;5.63;96.36;99333.91;12216473;19;20006;-81
2022/04/09 08:09:07;;;;;;;18.70;7.30;;;;;;;5.71;97.36;99348.09;12218220;19;20014;-81
2022/04/09 08:13:09;;;;;;;12.15;6.18;;;;;;;5.47;94.90;99354.47;12189359;19;20019;-80
2022/04/09 08:17:31;;;;;;;14.68;7.20;;;;;;;5.53;97.13;99355.44;12214564;19;20003;-80
2022/04/09 08:21:33;;;;;;;9.90;6.65;;;;;;;5.66;96.00;99360.78;12238220;19;20030;-80
2022/04/09 08:25:37;;;;;;;17.90;7.03;;;;;;;5.92;95.44;99363.16;12212046;19;20045;-81
2022/04/09 08:29:39;;;;;;;13.80;7.28;;;;;;;6.19;94.70;99365.59;12206959;19;20018;-81
2022/04/09 08:38:26;;;;;;;14.63;7.28;;;;;;;6.22;93.48;99372.50;12206881;19;20014;-80
2022/04/09 08:42:34;;;;;;;14.90;7.43;;;;;;;6.21;93.65;99382.56;12188887;19;20031;-79
2022/04/09 08:46:38;;;;;;;15.80;7.20;;;;;;;6.55;91.49;99374.72;12199009;19;20499;-80
2022/04/09 08:50:43;;;;;;;15.75;8.82;;;;;;;6.90;90.75;99377.53;12206750;19;20115;-80
2022/04/09 08:54:45;;;;;;;17.52;9.80;;;;;;;7.40;89.35;99376.22;12192729;19;20333;-82
2022/04/09 08:58:47;;;;;;;10.95;6.18;;;;;;;7.70;87.09;99381.53;12198905;19;20106;-80
2022/04/09 09:02:55;;;;;;;13.63;5.18;;;;;;;7.50;85.57;99392.91;12212891;19;20026;-80
2022/04/09 09:07:25;;;;;;;10.45;5.80;;;;;;;7.39;85.00;99396.50;12178360;19;20472;-79
2022/04/09 09:11:47;;;;;;;14.32;5.00;;;;;;;7.54;83.67;99405.06;12203477;19;20006;-79
2022/04/09 09:15:53;;;;;;;10.07;4.73;;;;;;;7.37;83.61;99404.94;12183540;19;20018;-78
2022/04/09 09:19:55;;;;;;;12.45;4.68;;;;;;;7.39;84.50;99405.53;12205207;19;20002;-79
2022/04/09 09:24:08;;;;;;;13.07;5.10;;;;;;;7.68;83.57;99398.25;12198052;19;20546;-78
2022/04/09 09:28:12;;;;;;;22.52;5.53;;;;;;;7.79;83.82;99403.94;12179842;19;20011;-79
2022/04/09 09:32:25;;;;;;;9.43;3.90;;;;;;;7.84;81.60;99412.28;12204987;19;20369;-79
2022/04/09 09:36:33;;;;;;;14.02;4.10;;;;;;;7.68;80.73;99409.22;12198949;19;20011;-79
2022/04/09 09:40:35;;;;;;;10.45;3.80;;;;;;;8.31;82.60;99406.66;12204747;19;20003;-77
2022/04/09 09:44:43;;;;;;;14.25;4.35;;;;;;;8.96;78.27;99406.22;12197701;19;20090;-78
2022/04/09 09:48:50;;;;;;;12.98;3.78;;;;;;;8.74;77.57;99400.59;12179476;19;20066;-77
2022/04/09 09:53:04;;;;;;;7.18;4.30;;;;;;;8.58;76.78;99421.47;12205608;19;20559;-78
2022/04/09 09:57:19;;;;;;;17.60;3.75;;;;;;;8.58;74.72;99416.00;12204962;19;20011;-78
2022/04/09 10:01:28;;;;;;;10.27;3.50;;;;;;;9.09;75.43;99399.56;12193289;19;20036;-79
2022/04/09 10:05:32;;;;;;;9.23;2.83;;;;;;;9.64;73.66;99406.13;12216947;19;20067;-80
2022/04/09 10:09:37;;;;;;;9.07;3.25;;;;;;;10.43;72.58;99405.78;12179634;19;20018;-79
2022/04/09 10:13:43;;;;;;;10.95;3.83;;;;;;;10.47;67.28;99415.22;12208733;19;20010;-78
2022/04/09 10:17:45;;;;;;;12.52;4.10;;;;;;;9.79;68.70;99423.72;12200965;19;20053;-79
2022/04/09 10:21:50;;;;;;;8.50;3.58;;;;;;;9.55;69.71;99427.78;12175442;19;20004;-79
2022/04/09 10:25:53;;;;;;;9.30;3.83;;;;;;;9.43;69.36;99436.13;12202775;19;20031;-78
2022/04/09 10:29:55;;;;;;;11.45;3.35;;;;;;;10.13;68.18;99433.78;12192177;19;20018;-79
2022/04/09 10:33:59;;;;;;;10.40;3.97;;;;;;;10.02;66.49;99432.81;12190223;19;20011;-78
2022/04/09 10:38:06;;;;;;;13.20;3.63;;;;;;;9.59;66.62;99421.50;12213891;19;20034;-79
2022/04/09 10:42:10;;;;;;;16.00;3.92;;;;;;;9.72;67.57;99427.72;12213114;19;20500;-79
2022/04/09 10:46:17;;;;;;;13.57;3.30;;;;;;;10.19;68.12;99428.06;12183488;19;20042;-79
2022/04/09 10:50:19;;;;;;;12.88;3.38;;;;;;;10.37;64.76;99431.63;12218663;19;20003;-78
2022/04/09 10:54:22;;;;;;;9.07;3.67;;;;;;;10.93;64.71;99438.53;12225458;19;20007;-78
2022/04/09 10:58:27;;;;;;;11.43;3.75;;;;;;;11.00;62.29;99426.47;12194846;19;20014;-80
2022/04/09 11:02:31;;;;;;;6.65;2.97;;;;;;;10.58;61.47;99427.16;12237040;19;20010;-77
2022/04/09 11:06:40;;;;;;;14.95;4.03;;;;;;;10.64;63.51;99437.16;12207965;19;20059;-79
2022/04/09 11:10:43;;;;;;;12.20;3.47;;;;;;;11.01;62.89;99428.97;12225099;19;20061;-77
2022/04/09 11:14:50;;;;;;;12.25;2.70;;;;;;;11.15;61.21;99421.94;12219689;19;20018;-78
2022/04/09 11:18:52;;;;;;;10.93;3.13;;;;;;;10.71;60.46;99424.84;12215776;19;20018;-79
2022/04/09 11:22:55;;;;;;;11.98;3.47;;;;;;;10.95;61.99;99411.56;12223865;19;20019;-79
2022/04/09 11:26:57;;;;;;;12.25;3.25;;;;;;;11.39;58.43;99414.13;12223924;19;20021;-79
2022/04/09 11:31:04;;;;;;;9.45;2.70;;;;;;;11.73;57.22;99407.44;12211889;19;20014;-79
2022/04/09 11:35:11;;;;;;;11.60;3.20;;;;;;;11.67;57.78;99406.56;12238918;19;20014;-80
2022/04/09 11:39:13;;;;;;;8.13;2.42;;;;;;;11.73;56.48;99413.78;12225393;19;20261;-79
2022/04/09 11:43:21;;;;;;;10.32;2.40;;;;;;;11.09;56.27;99474.53;12200902;19;20206;-81
2022/04/09 11:47:26;;;;;;;3.38;0.77;;;;;;;9.49;56.82;99481.88;12224461;19;20653;-79
2022/04/09 11:51:28;;;;;;;2.17;0.88;;;;;;;8.33;57.59;99492.31;12199573;19;20010;-78
2022/04/09 11:55:30;;;;;;;2.47;0.90;;;;;;;7.22;63.20;99495.84;12219000;19;20042;-78
2022/04/09 11:59:32;;;;;;;3.83;1.37;;;;;;;6.73;68.00;99481.44;12222777;19;20017;-78
2022/04/09 12:03:35;;;;;;;4.35;1.65;;;;;;;6.85;72.08;99479.56;12195224;19;20455;-79
2022/04/09 12:07:42;;;;;;;1.75;0.70;;;;;;;7.22;70.12;99484.88;12214294;19;20028;-77
2022/04/09 12:11:52;;;;;;;3.40;1.00;;;;;;;7.36;74.09;99477.28;12214916;19;20026;-78
2022/04/09 12:15:59;;;;;;;4.47;0.95;;;;;;;8.60;70.28;99467.94;12185958;19;20471;-77
2022/04/09 12:20:31;;;;;;;3.22;0.60;;;;;;;8.70;66.58;99467.28;12207144;19;20539;-79
2022/04/09 12:24:54;;;;;;;1.98;0.70;;;;;;;8.01;68.61;99470.81;12189701;19;20015;-79
2022/04/09 12:29:09;;;;;;;1.97;0.63;;;;;;;7.40;69.63;99483.13;12206148;19;20014;-77
2022/04/09 12:33:12;;;;;;;3.53;0.90;;;;;;;6.97;71.21;99481.50;12215651;19;20018;-78
2022/04/09 12:37:13;;;;;;;5.13;0.88;;;;;;;6.77;71.83;99479.06;12180103;19;20071;-77
2022/04/09 12:41:22;;;;;;;2.50;1.23;;;;;;;6.74;73.39;99487.75;12201844;19;20039;-76
2022/04/09 12:45:28;;;;;;;2.90;1.00;;;;;;;7.11;73.93;99477.50;12186110;19;20007;-77
2022/04/09 12:49:34;;;;;;;4.75;0.98;;;;;;;8.97;73.15;99475.75;12215197;19;20018;-77
2022/04/09 12:53:38;;;;;;;2.53;0.90;;;;;;;10.87;65.71;99474.59;12205043;19;20035;-77
2022/04/09 12:57:40;;;;;;;2.95;1.02;;;;;;;12.75;61.18;99463.94;12193279;19;20007;-77
2022/04/09 13:01:42;;;;;;;2.90;1.08;;;;;;;14.02;54.44;99451.25;12211642;19;20083;-78
2022/04/09 13:05:44;;;;;;;4.43;0.90;;;;;;;14.86;51.41;99462.53;12197210;19;20017;-79
2022/04/09 13:09:46;;;;;;;2.17;1.20;;;;;;;15.65;49.12;99460.56;12181529;19;20026;-78
2022/04/09 13:13:47;;;;;;;3.63;1.60;;;;;;;15.68;48.40;99471.09;12210394;19;20021;-79
2022/04/09 13:17:49;;;;;;;6.43;1.30;;;;;;;15.62;48.50;99471.44;12206632;19;20776;-79
2022/04/09 13:21:53;;;;;;;4.47;1.50;;;;;;;16.11;47.66;99473.19;12192554;19;20059;-79
2022/04/09 13:25:55;;;;;;;6.10;1.40;;;;;;;16.55;45.90;99467.38;12207088;19;20019;-79
2022/04/09 13:29:58;;;;;;;8.77;1.40;;;;;;;17.22;44.94;99458.09;12206861;19;20062;-80
2022/04/09 13:34:01;;;;;;;5.47;1.20;;;;;;;16.77;44.13;99455.69;12179838;19;20010;-79
2022/04/09 13:38:03;;;;;;;4.80;1.50;;;;;;;17.09;44.19;99448.56;12205571;19;20030;-79
2022/04/09 13:42:09;;;;;;;4.93;1.10;;;;;;;17.79;42.96;99449.66;12206559;19;20367;-78
2022/04/09 13:46:10;;;;;;;7.05;1.70;;;;;;;17.08;42.28;99441.34;12180301;19;20473;-80
2022/04/09 13:50:12;;;;;;;3.60;1.93;;;;;;;17.64;42.73;99425.63;12205874;19;20010;-79
2022/04/09 13:54:17;;;;;;;5.35;1.70;;;;;;;17.36;43.56;99421.97;12200542;19;20036;-79
2022/04/09 13:58:23;;;;;;;7.10;1.88;;;;;;;18.07;41.90;99425.44;12172046;19;20011;-79
2022/04/09 14:02:26;;;;;;;7.72;2.25;;;;;;;17.37;41.93;99418.03;12207357;19;20013;-80
2022/04/09 14:06:28;;;;;;;6.63;1.97;;;;;;;16.62;43.59;99422.47;12173083;19;20022;-79
2022/04/09 14:10:30;;;;;;;5.53;2.00;;;;;;;15.19;45.22;99424.03;12195779;19;20514;-79
2022/04/09 14:14:32;;;;;;;6.53;2.63;;;;;;;13.86;47.85;99430.22;12200855;19;20007;-79
2022/04/09 14:18:33;;;;;;;8.02;2.42;;;;;;;13.13;49.09;99423.06;12191539;19;20085;-79
2022/04/09 14:22:36;;;;;;;6.13;2.00;;;;;;;12.19;50.10;99427.00;12207511;19;20081;-79
2022/04/09 14:26:38;;;;;;;4.83;1.80;;;;;;;11.22;51.41;99445.69;12204750;19;20078;-80
2022/04/09 14:30:42;;;;;;;5.13;1.52;;;;;;;10.31;51.72;99438.97;12175819;19;20570;-81
2022/04/09 14:34:43;;;;;;;5.10;1.67;;;;;;;9.67;55.22;99427.66;12203574;19;20007;-78
2022/04/09 14:38:45;;;;;;;9.73;2.20;;;;;;;9.27;57.17;99428.69;12199618;19;20027;-79
2022/04/09 14:42:47;;;;;;;6.15;1.52;;;;;;;8.89;59.50;99466.84;12182683;19;19996;-78
2022/04/09 14:46:49;;;;;;;10.05;2.42;;;;;;;8.20;62.82;99464.06;12205570;19;20726;-80
2022/04/09 14:50:52;;;;;;;2.70;1.10;;;;;;;7.86;64.01;99467.75;12209691;19;20014;-79
2022/04/09 14:54:53;;;;;;;;;;;;;;;7.52;63.39;99451.06;12182361;19;20011;-79
2022/04/09 14:58:58;;;;;;;3.45;0.90;;;;;;;7.39;63.27;99434.88;12206433;19;20432;-79
2022/04/09 15:03:02;;;;;;;1.65;0.50;;;;;;;7.81;59.06;99443.78;12208152;19;20036;-80
2022/04/09 15:07:06;;;;;;;0.95;0.50;;;;;;;8.50;57.24;99459.47;12198354;19;20003;-81
2022/04/09 15:11:08;;;;;;;2.88;0.68;;;;;;;9.01;57.52;99457.66;12217401;19;20018;-81
2022/04/09 15:15:10;;;;;;;3.00;1.00;;;;;;;9.29;58.38;99462.28;12218602;19;20031;-79
2022/04/09 15:19:12;;;;;;;3.23;1.10;;;;;;;9.65;60.24;99469.16;12214464;19;20014;-79
2022/04/09 15:23:14;;;;;;;3.22;1.13;;;;;;;10.17;58.46;99470.72;12257053;19;20018;-78
2022/04/09 15:27:16;;;;;;;5.07;1.60;;;;;;;10.32;57.97;99472.84;12244717;19;20015;-80
2022/04/09 15:31:21;;;;;;;5.78;1.58;;;;;;;10.69;57.48;99473.84;12195424;19;20373;-79
2022/04/09 15:35:27;;;;;;;3.85;1.42;;;;;;;10.78;57.13;99471.47;12211250;19;20022;-79
2022/04/09 15:39:29;;;;;;;8.75;3.20;;;;;;;10.73;57.09;99474.16;12186586;19;20042;-79
2022/04/09 15:43:32;;;;;;;8.98;2.63;;;;;;;10.61;56.42;99477.06;12213104;19;20010;-80
2022/04/09 15:47:40;;;;;;;8.40;2.22;;;;;;;9.97;57.86;99476.78;12211389;19;20070;-79
2022/04/09 15:51:42;;;;;;;5.22;1.77;;;;;;;9.58;59.15;99477.59;12187623;19;20014;-80
2022/04/09 15:55:43;;;;;;;6.68;1.80;;;;;;;9.29;58.20;99487.03;12204218;19;20460;-81
2022/04/09 15:59:45;;;;;;;5.05;1.85;;;;;;;8.86;59.88;99511.28;12205301;19;20463;-80
2022/04/09 16:03:47;;;;;;;6.43;2.55;;;;;;;8.49;61.31;99505.34;12194996;19;20003;-77
2022/04/09 16:07:49;;;;;;;5.07;1.55;;;;;;;8.04;65.96;99497.78;12208293;19;20530;-78
2022/04/09 16:11:51;;;;;;;5.25;1.42;;;;;;;9.06;65.51;99499.81;12213000;19;20010;-78
2022/04/09 16:15:52;;;;;;;5.78;1.60;;;;;;;10.04;63.38;99493.94;12173850;19;20409;-77
2022/04/09 16:19:55;;;;;;;8.27;1.60;;;;;;;10.42;62.48;99490.34;12214408;19;20015;-78
2022/04/09 16:23:58;;;;;;;6.88;1.20;;;;;;;10.62;58.25;99495.28;12209344;19;20035;-78
2022/04/09 16:28:00;;;;;;;3.75;1.50;;;;;;;9.95;59.72;99501.81;12193993;19;20007;-78
2022/04/09 16:32:02;;;;;;;2.80;1.08;;;;;;;9.33;59.60;99504.69;12222942;19;20010;-79
2022/04/09 16:36:04;;;;;;;4.30;1.30;;;;;;;8.88;61.41;99511.03;12212287;19;20010;-78
2022/04/09 16:40:07;;;;;;;7.00;1.88;;;;;;;8.57;62.70;99510.47;12190848;19;20007;-79
2022/04/09 16:44:09;;;;;;;10.95;1.63;;;;;;;8.20;64.28;99513.47;12205851;19;20391;-79
2022/04/09 16:48:11;;;;;;;3.83;2.30;;;;;;;8.00;65.02;99510.28;12206179;19;20070;-81
2022/04/09 16:52:13;;;;;;;5.22;1.80;;;;;;;7.86;65.99;99523.44;12194196;19;20361;-79
2022/04/09 16:56:15;;;;;;;4.32;1.60;;;;;;;7.69;67.48;99560.88;12207099;19;20034;-78
2022/04/09 17:00:24;;;;;;;4.32;1.48;;;;;;;7.19;70.84;99581.25;12197382;19;20024;-81
2022/04/09 17:04:27;;;;;;;7.10;1.75;;;;;;;6.51;73.16;99593.31;12191824;19;20014;-79
2022/04/09 17:08:29;;;;;;;4.78;1.35;;;;;;;5.89;76.12;99596.06;12219812;19;20003;-78
2022/04/09 17:12:36;;;;;;;3.10;1.30;;;;;;;5.43;78.20;99597.28;12189088;19;20036;-78
2022/04/09 17:16:40;;;;;;;7.63;2.00;;;;;;;5.17;81.03;99594.72;12209167;19;20090;-79
2022/04/09 17:20:42;;;;;;;7.90;1.73;;;;;;;5.02;82.50;99593.13;12205535;19;20102;-80
2022/04/09 17:24:43;;;;;;;5.93;2.17;;;;;;;4.94;85.14;99592.59;12178801;19;20034;-79
2022/04/09 17:28:45;;;;;;;4.60;2.72;;;;;;;4.92;86.30;99595.50;12207324;19;20002;-80
2022/04/09 17:32:47;;;;;;;3.80;1.37;;;;;;;5.20;87.24;99595.13;12204343;19;20480;-77
2022/04/09 17:36:49;;;;;;;4.97;1.92;;;;;;;5.54;85.77;99586.72;12186078;19;20365;-78
2022/04/09 17:41:00;;;;;;;7.82;3.67;;;;;;;5.64;86.20;99589.78;12182234;19;20003;-77
2022/04/09 17:45:02;;;;;;;13.70;5.60;;;;;;;5.53;87.76;99591.31;12198082;19;20014;-77
2022/04/09 17:49:15;;;;;;;7.35;3.30;;;;;;;5.40;89.77;99610.56;12229337;19;20973;-79
2022/04/09 17:53:21;;;;;;;5.95;2.47;;;;;;;5.49;89.97;99618.25;12260469;19;20472;-79
2022/04/09 17:57:24;;;;;;;6.70;2.80;;;;;;;5.32;90.21;99617.13;12241566;19;20366;-79
2022/04/09 18:01:34;;;;;;;7.60;2.78;;;;;;;5.04;90.75;99636.63;12229745;19;20007;-80
2022/04/09 18:05:36;;;;;;;6.50;2.63;;;;;;;4.84;91.93;99636.72;12250979;19;20096;-79
2022/04/09 18:09:43;;;;;;;7.13;2.55;;;;;;;4.66;92.12;99629.22;12227756;19;20011;-79
2022/04/09 18:13:45;;;;;;;6.93;3.17;;;;;;;4.50;92.59;99636.00;12251134;19;20015;-79
2022/04/09 18:17:47;;;;;;;9.90;4.22;;;;;;;4.38;94.10;99653.25;12254700;19;20584;-80
2022/04/09 18:21:49;;;;;;;6.90;3.53;;;;;;;4.26;94.21;99658.53;12225812;19;20018;-79
2022/04/09 18:25:51;;;;;;;8.77;3.03;;;;;;;4.16;94.76;99660.84;12243275;19;20010;-79
2022/04/09 18:29:54;;;;;;;9.20;3.70;;;;;;;4.07;94.66;99665.66;12257367;19;20040;-79
2022/04/09 18:34:00;;;;;;;7.57;3.33;;;;;;;3.98;94.46;99669.66;12229139;19;20482;-79
2022/04/09 18:38:04;;;;;;;7.18;3.15;;;;;;;3.87;95.31;99680.16;12252547;19;20011;-79
2022/04/09 18:42:06;;;;;;;7.55;3.63;;;;;;;3.81;95.86;99685.63;12248865;19;20006;-79
2022/04/09 18:46:08;;;;;;;13.05;3.42;;;;;;;3.72;96.10;99693.16;12221353;19;20047;-79
2022/04/09 18:50:10;;;;;;;7.43;3.15;;;;;;;3.63;96.14;99697.97;12250569;19;20014;-79
2022/04/09 18:54:11;;;;;;;9.82;4.40;;;;;;;3.56;96.66;99699.81;12256817;19;20021;-78
2022/04/09 18:58:14;;;;;;;8.80;3.20;;;;;;;3.46;97.75;99714.91;12203308;19;20015;-78